Time;durP1;ratioP1;P1;durP2;ratioP2;P2;SDS_P1;SDS_P2;PMS_P1;PMS_P2;Temp;Humidity;BMP_temperature;BMP_pressure;BME280_temperature;BME280_humidity;BME280_pressure;Samples;Min_cycle;Max_cycle;Signal;HPM_P1;HPM_P2
2022/05/14 00:02:11;;;;;;;5.38;2.03;;;16.40;51.40;;;;;;4985862;28;20038;-72
2022/05/14 00:04:38;;;;;;;10.85;3.08;;;16.30;51.30;;;;;;4984350;28;20232;-72
2022/05/14 00:07:04;;;;;;;10.32;2.25;;;16.30;51.40;;;;;;4981347;28;20824;-72
2022/05/14 00:09:30;;;;;;;9.73;3.17;;;16.20;51.20;;;;;;4977421;28;20038;-72
2022/05/14 00:14:40;;;;;;;5.88;2.63;;;16.20;51.40;;;;;;4978138;28;20116;-72
2022/05/14 00:17:06;;;;;;;8.82;2.60;;;16.20;51.50;;;;;;4981096;28;20070;-72
2022/05/14 00:19:32;;;;;;;7.43;3.10;;;16.20;51.60;;;;;;4985779;28;20487;-72
2022/05/14 00:21:58;;;;;;;7.70;2.65;;;16.20;51.60;;;;;;4981006;28;20027;-72
2022/05/14 00:24:24;;;;;;;6.45;2.30;;;16.20;51.80;;;;;;4982816;28;20560;-72
2022/05/14 00:26:50;;;;;;;10.10;2.60;;;16.10;51.60;;;;;;4959995;28;20451;-72
2022/05/14 00:29:16;;;;;;;7.43;2.88;;;16.10;51.70;;;;;;4984756;28;20129;-72
2022/05/14 00:31:42;;;;;;;9.43;2.60;;;16.10;51.80;;;;;;4983772;28;20117;-74
2022/05/14 00:34:08;;;;;;;7.70;2.97;;;16.10;51.90;;;;;;4991864;28;20465;-71
2022/05/14 00:36:34;;;;;;;9.32;2.72;;;16.10;52.00;;;;;;4978760;28;20081;-73
2022/05/14 00:39:00;;;;;;;9.32;2.55;;;16.00;51.90;;;;;;4978119;28;20409;-71
2022/05/14 00:41:27;;;;;;;10.20;2.85;;;16.00;52.00;;;;;;4965297;28;20125;-72
2022/05/14 00:43:57;;;;;;;9.25;2.65;;;16.00;52.10;;;;;;4976727;28;20038;-72
2022/05/14 00:46:28;;;;;;;7.97;2.90;;;16.00;52.20;;;;;;4968694;28;20049;-72
2022/05/14 00:48:58;;;;;;;5.88;2.35;;;15.90;52.00;;;;;;4988628;28;20754;-72
2022/05/14 00:51:29;;;;;;;12.80;2.72;;;16.00;52.30;;;;;;4977463;28;20046;-71
2022/05/14 00:54:10;;;;;;;9.02;3.53;;;15.90;52.20;;;;;;4992577;28;20053;-72
2022/05/14 00:56:42;;;;;;;13.77;4.20;;;15.90;52.30;;;;;;4965553;28;20117;-71
2022/05/14 00:59:15;;;;;;;6.95;2.33;;;15.90;52.30;;;;;;4991951;28;20065;-73
2022/05/14 01:01:42;;;;;;;8.75;2.95;;;15.90;52.40;;;;;;4945351;28;20488;-72
2022/05/14 01:04:09;;;;;;;8.95;3.13;;;15.80;52.30;;;;;;4984388;28;20045;-72
2022/05/14 01:06:38;;;;;;;10.27;2.83;;;15.80;52.40;;;;;;4971807;28;20026;-72
2022/05/14 01:09:06;;;;;;;6.80;2.78;;;15.80;52.40;;;;;;4985457;28;20034;-72
2022/05/14 01:11:36;;;;;;;14.32;3.83;;;15.80;52.50;;;;;;4976223;28;20026;-73
2022/05/14 01:14:03;;;;;;;8.80;3.22;;;15.80;52.60;;;;;;4999332;28;20533;-73
2022/05/14 01:16:32;;;;;;;9.95;3.22;;;15.80;52.70;;;;;;4971647;28;20042;-72
2022/05/14 01:18:59;;;;;;;10.90;3.65;;;15.70;52.60;;;;;;4969391;28;20035;-72
2022/05/14 01:21:58;;;;;;;14.55;3.53;;;15.70;52.60;;;;;;4967580;28;20096;-72
2022/05/14 01:27:43;;;;;;;8.63;2.58;;;15.70;52.90;;;;;;4973490;28;20510;-73
2022/05/14 01:30:10;;;;;;;9.77;3.17;;;15.70;52.70;;;;;;4994214;28;20059;-73
2022/05/14 01:32:36;;;;;;;9.27;2.83;;;15.70;52.80;;;;;;5000472;28;20035;-73
2022/05/14 01:35:04;;;;;;;9.70;2.90;;;15.60;52.70;;;;;;4982646;28;20390;-73
2022/05/14 01:37:32;;;;;;;6.90;2.60;;;15.70;53.00;;;;;;4993445;28;20034;-72
2022/05/14 01:39:57;;;;;;;8.32;2.38;;;15.60;52.90;;;;;;4982342;28;20026;-73
2022/05/14 01:42:24;;;;;;;6.07;2.42;;;15.60;52.90;;;;;;4988597;28;20393;-73
2022/05/14 01:44:50;;;;;;;9.88;3.72;;;15.60;53.00;;;;;;4965269;28;20113;-72
2022/05/14 01:47:16;;;;;;;8.13;2.35;;;15.60;53.10;;;;;;4970313;28;20050;-73
2022/05/14 01:49:43;;;;;;;12.27;3.42;;;15.60;53.10;;;;;;4987270;28;20038;-73
2022/05/14 01:52:09;;;;;;;7.15;2.80;;;15.60;53.20;;;;;;4982201;28;20023;-73
2022/05/14 01:54:35;;;;;;;9.98;2.63;;;15.50;53.10;;;;;;4983035;28;20030;-73
2022/05/14 01:57:01;;;;;;;11.48;3.03;;;15.50;53.20;;;;;;4998463;28;20398;-73
2022/05/14 01:59:27;;;;;;;7.93;2.53;;;15.50;53.30;;;;;;4978829;28;20394;-73
2022/05/14 02:01:53;;;;;;;7.90;2.38;;;15.50;53.30;;;;;;4970113;28;20108;-73
2022/05/14 02:04:18;;;;;;;10.43;3.38;;;15.40;53.20;;;;;;4989769;28;20587;-73
2022/05/14 02:06:46;;;;;;;10.35;3.28;;;15.40;53.30;;;;;;4979855;28;20501;-73
2022/05/14 02:09:14;;;;;;;6.90;2.83;;;15.40;53.40;;;;;;4964710;28;20173;-73
2022/05/14 02:11:43;;;;;;;7.60;3.38;;;15.40;53.40;;;;;;4961666;28;20026;-73
2022/05/14 02:14:16;;;;;;;10.98;3.10;;;15.40;53.50;;;;;;4990507;28;20042;-73
2022/05/14 02:16:42;;;;;;;10.85;3.97;;;15.40;53.60;;;;;;4972311;28;20030;-73
2022/05/14 02:19:07;;;;;;;9.68;2.80;;;15.40;53.60;;;;;;4951794;28;20026;-73
2022/05/14 02:21:35;;;;;;;7.43;2.42;;;15.30;53.50;;;;;;4973549;28;20034;-73
2022/05/14 02:24:01;;;;;;;7.25;2.92;;;15.30;53.60;;;;;;4982525;28;20069;-73
2022/05/14 02:26:27;;;;;;;11.25;2.97;;;15.30;53.60;;;;;;4976741;28;20056;-72
2022/05/14 02:28:55;;;;;;;9.02;3.20;;;15.30;53.70;;;;;;4959888;28;20490;-72
2022/05/14 02:31:21;;;;;;;8.68;2.78;;;15.30;53.80;;;;;;4982884;28;20208;-72
2022/05/14 02:33:48;;;;;;;7.43;2.72;;;15.30;53.90;;;;;;4974605;28;20034;-73
2022/05/14 02:36:14;;;;;;;9.70;2.67;;;15.30;53.90;;;;;;4975828;28;20035;-72
2022/05/14 02:38:40;;;;;;;10.55;2.90;;;15.30;53.90;;;;;;4990372;28;20085;-73
2022/05/14 02:41:07;;;;;;;9.20;2.85;;;15.30;54.00;;;;;;4972660;28;20041;-72
2022/05/14 02:43:34;;;;;;;6.32;2.20;;;15.30;54.00;;;;;;4960960;28;20633;-72
2022/05/14 02:46:01;;;;;;;8.35;3.28;;;15.30;54.00;;;;;;4971913;28;20085;-73
2022/05/14 02:48:27;;;;;;;6.82;2.28;;;15.30;54.10;;;;;;4971654;28;20081;-73
2022/05/14 02:50:55;;;;;;;8.23;2.70;;;15.30;54.10;;;;;;4974306;28;20030;-73
2022/05/14 02:53:21;;;;;;;8.15;2.97;;;15.30;54.20;;;;;;4977957;28;20089;-73
2022/05/14 02:55:47;;;;;;;9.93;3.28;;;15.30;54.20;;;;;;4989777;28;20102;-73
2022/05/14 02:59:06;;;;;;;12.52;3.55;;;15.30;54.20;;;;;;4985672;28;20441;-73
2022/05/14 03:00:59;;;;;;;7.78;3.33;;;15.30;54.30;;;;;;4979347;28;20027;-73
2022/05/14 03:03:26;;;;;;;6.85;2.75;;;15.30;54.30;;;;;;4982481;28;20053;-73
2022/05/14 03:05:52;;;;;;;9.10;2.97;;;15.20;54.20;;;;;;4997839;28;20088;-73
2022/05/14 03:08:18;;;;;;;10.25;3.50;;;15.20;54.30;;;;;;5000218;28;20034;-73
2022/05/14 03:10:44;;;;;;;7.55;3.17;;;15.20;54.30;;;;;;5000323;28;20053;-73
2022/05/14 03:13:10;;;;;;;7.53;2.33;;;15.20;54.30;;;;;;5004112;28;20088;-73
2022/05/14 03:15:36;;;;;;;8.85;3.42;;;15.20;54.40;;;;;;4991361;28;20034;-73
2022/05/14 03:18:02;;;;;;;8.45;2.55;;;15.20;54.40;;;;;;4992548;28;20188;-73
2022/05/14 03:20:27;;;;;;;9.52;3.08;;;15.20;54.50;;;;;;4989979;28;20254;-73
2022/05/14 03:22:53;;;;;;;10.48;2.80;;;15.20;54.50;;;;;;4984065;28;20038;-73
2022/05/14 03:25:19;;;;;;;8.38;2.72;;;15.20;54.60;;;;;;4989273;28;20455;-73
2022/05/14 03:27:45;;;;;;;6.65;3.22;;;15.20;54.60;;;;;;4988027;28;20434;-73
2022/05/14 03:30:11;;;;;;;7.82;3.00;;;15.20;54.60;;;;;;4996858;28;20034;-73
2022/05/14 03:32:38;;;;;;;7.00;2.72;;;15.20;54.70;;;;;;4971253;28;20084;-73
2022/05/14 03:35:08;;;;;;;8.02;3.22;;;15.20;54.70;;;;;;4973672;28;20030;-73
2022/05/14 03:37:35;;;;;;;9.70;2.88;;;15.20;54.80;;;;;;4984602;28;20128;-73
2022/05/14 03:40:04;;;;;;;8.27;2.90;;;15.20;54.80;;;;;;4979894;28;20096;-73
2022/05/14 03:42:31;;;;;;;10.52;3.70;;;15.20;54.80;;;;;;4991297;28;20045;-73
2022/05/14 03:44:58;;;;;;;9.07;3.38;;;15.20;54.90;;;;;;4995313;28;20484;-73
2022/05/14 03:47:24;;;;;;;6.85;2.50;;;15.20;54.90;;;;;;4973000;28;20064;-73
2022/05/14 03:49:50;;;;;;;7.40;3.47;;;15.20;55.00;;;;;;4957452;28;20034;-73
2022/05/14 03:52:16;;;;;;;9.27;2.65;;;15.10;54.90;;;;;;4987035;28;20037;-73
2022/05/14 03:54:45;;;;;;;5.22;2.33;;;15.10;54.90;;;;;;4990106;28;20037;-73
2022/05/14 03:57:13;;;;;;;8.88;2.80;;;15.10;55.00;;;;;;4997507;28;20049;-74
2022/05/14 03:59:40;;;;;;;6.03;2.72;;;15.10;55.00;;;;;;4987905;28;20068;-74
2022/05/14 04:02:06;;;;;;;5.70;2.78;;;15.10;55.00;;;;;;4974587;28;20585;-74
2022/05/14 04:04:33;;;;;;;10.27;3.53;;;15.10;55.10;;;;;;4955415;28;20040;-73
2022/05/14 04:07:00;;;;;;;8.27;2.85;;;15.10;55.20;;;;;;4986302;28;20039;-74
2022/05/14 04:09:26;;;;;;;7.20;2.90;;;15.10;55.20;;;;;;4979562;28;20223;-74
2022/05/14 04:11:54;;;;;;;9.48;3.33;;;15.10;55.30;;;;;;4989158;28;20030;-74
2022/05/14 04:14:21;;;;;;;10.00;3.75;;;15.00;55.10;;;;;;4987549;28;20125;-73
2022/05/14 04:16:49;;;;;;;11.15;4.05;;;15.00;55.20;;;;;;4987638;28;20066;-74
2022/05/14 04:19:16;;;;;;;9.05;3.78;;;15.00;55.20;;;;;;4968695;28;20030;-74
2022/05/14 04:21:42;;;;;;;6.43;3.10;;;15.00;55.20;;;;;;4985208;28;20127;-74
2022/05/14 04:24:08;;;;;;;9.98;2.72;;;15.00;55.30;;;;;;4989367;28;20045;-73
2022/05/14 04:26:35;;;;;;;8.13;3.20;;;15.00;55.30;;;;;;4972982;28;20061;-73
2022/05/14 04:29:02;;;;;;;9.30;4.10;;;15.00;55.30;;;;;;4997508;28;20517;-73
2022/05/14 04:31:29;;;;;;;8.15;2.60;;;15.00;55.40;;;;;;4970901;28;20445;-73
2022/05/14 04:33:55;;;;;;;8.90;2.83;;;15.10;55.60;;;;;;4952479;28;20033;-74
2022/05/14 04:36:21;;;;;;;8.40;2.63;;;15.10;55.60;;;;;;4969825;28;20040;-73
2022/05/14 04:38:48;;;;;;;9.55;4.10;;;15.10;55.60;;;;;;4955528;28;20034;-74
2022/05/14 04:41:14;;;;;;;7.28;2.53;;;15.10;55.60;;;;;;4974980;28;20104;-74
2022/05/14 04:43:40;;;;;;;10.68;3.25;;;15.10;55.60;;;;;;4992713;28;20125;-73
2022/05/14 04:46:07;;;;;;;5.32;2.30;;;15.10;55.70;;;;;;4993168;28;20076;-72
2022/05/14 04:48:35;;;;;;;6.63;2.80;;;15.10;55.70;;;;;;4975554;28;20358;-72
2022/05/14 04:51:04;;;;;;;7.07;3.25;;;15.10;55.70;;;;;;4993645;28;20084;-72
2022/05/14 04:53:30;;;;;;;6.05;2.42;;;15.00;55.60;;;;;;4965271;28;20133;-71
2022/05/14 04:55:57;;;;;;;8.20;2.58;;;15.00;55.60;;;;;;4983334;28;20464;-72
2022/05/14 04:58:23;;;;;;;11.60;3.42;;;15.00;55.60;;;;;;4988312;28;20118;-72
2022/05/14 05:00:49;;;;;;;8.70;2.95;;;15.00;55.70;;;;;;4981612;28;20026;-72
2022/05/14 05:03:19;;;;;;;7.63;2.47;;;15.00;55.70;;;;;;4965067;28;20037;-71
2022/05/14 05:05:52;;;;;;;10.02;3.80;;;15.00;55.70;;;;;;4946885;28;20026;-74
2022/05/14 05:08:19;;;;;;;9.23;2.53;;;15.00;55.80;;;;;;4987565;28;20042;-72
2022/05/14 05:10:46;;;;;;;5.63;2.55;;;15.00;55.80;;;;;;4983179;28;20026;-72
2022/05/14 05:13:15;;;;;;;8.85;2.63;;;15.00;55.80;;;;;;4979122;28;20026;-71
2022/05/14 05:15:42;;;;;;;7.80;3.13;;;15.00;55.90;;;;;;4960083;28;20066;-73
2022/05/14 05:18:09;;;;;;;5.28;3.38;;;15.00;55.90;;;;;;4991812;28;20048;-75
2022/05/14 05:20:37;;;;;;;7.75;3.22;;;15.00;55.90;;;;;;4990488;28;20381;-73
2022/05/14 05:23:04;;;;;;;7.90;3.60;;;15.00;55.90;;;;;;4983308;28;20030;-73
2022/05/14 05:25:32;;;;;;;8.90;3.47;;;15.10;56.10;;;;;;4977906;28;20071;-74
2022/05/14 05:27:58;;;;;;;6.72;2.65;;;15.10;56.10;;;;;;4966609;28;20491;-74
2022/05/14 05:30:25;;;;;;;10.23;2.28;;;15.10;56.00;;;;;;4983722;28;20366;-74
2022/05/14 05:32:51;;;;;;;11.80;4.68;;;15.20;56.20;;;;;;4978284;28;20125;-72
2022/05/14 05:35:17;;;;;;;8.48;2.60;;;15.20;56.20;;;;;;4982950;28;20169;-74
2022/05/14 05:37:44;;;;;;;7.97;2.70;;;15.20;56.10;;;;;;4982946;28;20038;-76
2022/05/14 05:40:10;;;;;;;7.45;2.63;;;15.30;56.30;;;;;;4979643;28;20027;-75
2022/05/14 05:42:36;;;;;;;7.32;2.55;;;15.30;56.30;;;;;;4981595;28;20069;-74
2022/05/14 05:45:03;;;;;;;6.47;2.30;;;15.30;56.20;;;;;;4987626;28;20038;-74
2022/05/14 05:47:29;;;;;;;6.28;2.15;;;15.40;56.40;;;;;;4981852;28;20043;-75
2022/05/14 05:49:55;;;;;;;10.45;3.00;;;15.40;56.40;;;;;;4993944;28;20092;-76
2022/05/14 05:52:21;;;;;;;13.93;4.13;;;15.50;56.60;;;;;;4982755;28;20751;-76
2022/05/14 05:57:35;;;;;;;15.32;4.60;;;15.60;57.30;;;;;;4979547;28;20026;-75
2022/05/14 06:00:04;;;;;;;10.52;3.45;;;15.70;56.90;;;;;;4985212;28;20071;-75
2022/05/14 06:02:37;;;;;;;14.45;3.30;;;15.70;57.00;;;;;;4978985;28;20035;-76
2022/05/14 06:05:05;;;;;;;17.83;4.93;;;15.70;57.10;;;;;;4982292;28;20828;-74
2022/05/14 06:07:35;;;;;;;16.35;4.32;;;15.70;57.30;;;;;;4987279;28;20592;-74
2022/05/14 06:10:04;;;;;;;9.57;4.07;;;15.70;57.60;;;;;;4992048;28;20376;-75
2022/05/14 06:12:30;;;;;;;12.75;3.92;;;15.70;57.90;;;;;;4982495;28;20036;-74
2022/05/14 06:14:56;;;;;;;14.60;4.30;;;15.70;57.90;;;;;;4967719;28;20033;-75
2022/05/14 06:17:22;;;;;;;18.25;5.38;;;15.70;57.90;;;;;;4985510;28;20438;-74
2022/05/14 06:19:48;;;;;;;10.95;3.95;;;15.80;58.10;;;;;;4985261;28;20026;-74
2022/05/14 06:22:14;;;;;;;15.40;4.25;;;15.80;58.20;;;;;;4980052;28;20547;-74
2022/05/14 06:24:40;;;;;;;16.42;4.68;;;15.80;58.30;;;;;;4959690;28;20083;-75
2022/05/14 06:27:06;;;;;;;17.77;4.65;;;15.80;58.30;;;;;;4981727;28;20018;-75
2022/05/14 06:29:33;;;;;;;9.77;4.30;;;15.90;58.50;;;;;;4965510;28;20030;-74
2022/05/14 06:31:59;;;;;;;11.25;3.92;;;15.90;58.50;;;;;;4971805;28;20034;-74
2022/05/14 06:34:26;;;;;;;15.75;5.00;;;16.00;58.70;;;;;;4984305;28;20105;-77
2022/05/14 06:36:52;;;;;;;14.13;4.18;;;16.00;58.60;;;;;;4982868;28;20046;-76
2022/05/14 06:39:19;;;;;;;15.82;4.07;;;16.10;58.70;;;;;;4985464;28;20137;-77
2022/05/14 06:41:45;;;;;;;13.13;4.20;;;16.20;58.90;;;;;;4992116;28;20418;-76
2022/05/14 06:44:11;;;;;;;17.05;5.18;;;16.30;59.00;;;;;;4989464;28;20053;-75
2022/05/14 06:46:37;;;;;;;11.80;4.50;;;16.40;59.00;;;;;;4982045;28;20042;-75
2022/05/14 06:49:03;;;;;;;15.00;3.80;;;16.50;59.00;;;;;;4988211;28;20473;-75
2022/05/14 06:51:31;;;;;;;17.92;4.40;;;16.60;59.10;;;;;;4980067;28;20026;-75
2022/05/14 06:54:04;;;;;;;12.65;3.58;;;16.70;59.20;;;;;;4988033;28;20206;-75
2022/05/14 06:56:32;;;;;;;12.98;4.80;;;16.70;59.10;;;;;;4977077;28;20027;-75
2022/05/14 06:59:00;;;;;;;14.88;4.13;;;16.70;58.90;;;;;;4949408;28;20041;-77
2022/05/14 07:01:27;;;;;;;11.90;4.88;;;16.80;59.10;;;;;;4959656;28;20029;-77
2022/05/14 07:06:43;;;;;;;17.73;5.80;;;16.90;59.40;;;;;;4981982;28;20061;-75
2022/05/14 07:09:12;;;;;;;19.27;5.72;;;17.00;59.30;;;;;;4979697;28;20062;-80
2022/05/14 07:11:41;;;;;;;11.00;4.30;;;17.10;59.20;;;;;;4967975;28;20034;-74
2022/05/14 07:14:08;;;;;;;21.85;5.65;;;17.30;59.30;;;;;;4978172;28;20026;-74
2022/05/14 07:16:34;;;;;;;17.67;4.53;;;17.40;59.20;;;;;;4981364;28;20508;-75
2022/05/14 07:19:00;;;;;;;20.77;4.78;;;17.40;58.90;;;;;;4983055;28;20534;-75
2022/05/14 07:21:26;;;;;;;17.85;5.25;;;17.50;59.00;;;;;;4975938;28;20112;-74
2022/05/14 07:23:53;;;;;;;13.80;4.72;;;17.50;58.90;;;;;;4974139;28;20034;-75
2022/05/14 07:26:19;;;;;;;17.60;6.28;;;17.60;59.00;;;;;;4976310;28;20517;-74
2022/05/14 07:28:45;;;;;;;18.08;5.47;;;17.60;58.90;;;;;;4991547;28;20661;-74
2022/05/14 07:31:11;;;;;;;25.45;5.15;;;17.70;58.90;;;;;;4986995;28;20038;-74
2022/05/14 07:33:37;;;;;;;10.95;4.70;;;17.70;58.80;;;;;;4973478;28;20101;-74
2022/05/14 07:36:17;;;;;;;11.98;4.20;;;17.80;59.00;;;;;;4982742;28;20553;-73
2022/05/14 07:38:44;;;;;;;20.23;6.50;;;17.90;59.10;;;;;;4978662;28;20030;-74
2022/05/14 07:41:12;;;;;;;18.63;6.85;;;17.90;58.90;;;;;;4968047;28;20057;-74
2022/05/14 07:43:41;;;;;;;17.77;5.82;;;17.90;58.70;;;;;;4982183;28;20042;-75
2022/05/14 07:46:11;;;;;;;18.63;4.85;;;17.90;58.60;;;;;;4978574;28;20289;-74
2022/05/14 07:48:39;;;;;;;15.15;4.40;;;17.90;58.70;;;;;;4988931;28;20045;-74
2022/05/14 07:51:07;;;;;;;15.05;4.72;;;18.00;59.00;;;;;;4983030;28;20054;-73
2022/05/14 07:53:34;;;;;;;17.83;5.07;;;18.10;59.00;;;;;;4982499;28;20037;-73
2022/05/14 07:56:03;;;;;;;16.40;8.15;;;18.30;58.90;;;;;;4964276;28;20034;-73
2022/05/14 07:58:29;;;;;;;18.25;9.07;;;18.40;58.70;;;;;;4983781;28;20091;-74
2022/05/14 08:00:56;;;;;;;21.15;9.48;;;18.50;58.20;;;;;;4977157;28;20130;-74
2022/05/14 08:03:24;;;;;;;18.92;9.05;;;18.50;57.70;;;;;;4979430;28;20049;-73
2022/05/14 08:05:56;;;;;;;20.55;9.73;;;18.60;57.50;;;;;;4986427;28;20580;-74
2022/05/14 08:08:23;;;;;;;16.92;5.38;;;18.70;57.20;;;;;;4986623;28;20031;-74
2022/05/14 08:10:49;;;;;;;13.50;4.80;;;18.80;57.00;;;;;;4962497;28;20113;-73
2022/05/14 08:13:17;;;;;;;17.73;4.10;;;18.80;57.00;;;;;;4983828;28;20057;-74
2022/05/14 08:15:45;;;;;;;11.73;4.13;;;18.80;56.90;;;;;;4974583;28;20402;-74
2022/05/14 08:18:11;;;;;;;11.25;3.83;;;18.80;56.90;;;;;;4987745;28;20084;-74
2022/05/14 08:20:39;;;;;;;13.88;4.50;;;18.90;56.90;;;;;;4986486;28;20034;-75
2022/05/14 08:25:52;;;;;;;13.48;4.25;;;19.10;57.00;;;;;;4980957;28;20421;-75
2022/05/14 08:28:19;;;;;;;12.15;3.80;;;19.40;57.00;;;;;;4990997;28;20232;-75
2022/05/14 08:30:45;;;;;;;15.23;5.15;;;19.60;56.90;;;;;;4981058;28;20333;-74
2022/05/14 08:33:11;;;;;;;17.52;5.82;;;19.70;56.70;;;;;;4992010;28;20503;-74
2022/05/14 08:35:38;;;;;;;12.02;4.22;;;19.70;56.40;;;;;;4985711;28;20123;-73
2022/05/14 08:38:05;;;;;;;14.48;4.25;;;19.60;56.20;;;;;;4984690;28;20030;-74
2022/05/14 08:40:36;;;;;;;11.27;3.67;;;19.60;56.20;;;;;;4968336;28;20038;-74
2022/05/14 08:43:08;;;;;;;17.77;5.43;;;19.50;56.70;;;;;;4982344;28;20046;-74
2022/05/14 08:45:37;;;;;;;15.25;3.88;;;19.50;56.20;;;;;;4983238;28;20196;-75
2022/05/14 08:48:29;;;;;;;15.10;4.35;;;19.50;56.00;;;;;;4977590;28;20561;-75
2022/05/14 08:51:04;;;;;;;15.75;4.38;;;19.60;55.90;;;;;;4982137;28;20034;-74
2022/05/14 08:53:32;;;;;;;16.08;4.35;;;19.50;55.70;;;;;;4983463;28;20039;-74
2022/05/14 08:56:28;;;;;;;16.65;4.55;;;19.60;55.80;;;;;;4983054;28;20048;-74
2022/05/14 08:59:18;;;;;;;14.18;4.22;;;19.70;55.60;;;;;;4982202;28;20129;-75
2022/05/14 09:01:46;;;;;;;16.55;4.38;;;19.80;55.50;;;;;;4981725;28;20059;-74
2022/05/14 09:04:17;;;;;;;13.63;4.15;;;19.90;55.30;;;;;;4984442;28;20493;-74
2022/05/14 09:06:44;;;;;;;11.93;3.72;;;19.90;55.10;;;;;;4965891;28;20741;-74
2022/05/14 09:09:11;;;;;;;14.98;4.15;;;19.90;55.00;;;;;;4989282;28;20442;-74
2022/05/14 09:11:44;;;;;;;12.15;4.65;;;19.90;55.10;;;;;;4984648;28;20081;-75
2022/05/14 09:14:23;;;;;;;;;;;20.00;55.30;;;;;;4984083;28;20070;-74
2022/05/14 09:16:51;;;;;;;12.32;3.83;;;20.10;55.10;;;;;;4981730;28;19913;-73
2022/05/14 09:19:20;;;;;;;13.75;4.80;;;20.20;55.00;;;;;;4987629;28;20041;-74
2022/05/14 09:21:56;;;;;;;14.27;4.97;;;20.40;55.20;;;;;;4968604;28;20116;-75
2022/05/14 09:24:25;;;;;;;11.30;3.65;;;20.60;55.10;;;;;;4963142;28;20141;-74
2022/05/14 09:27:07;;;;;;;10.43;4.30;;;20.80;54.80;;;;;;4984797;28;20029;-74
2022/05/14 09:29:41;;;;;;;14.07;3.95;;;21.00;54.70;;;;;;4974147;28;20026;-74
2022/05/14 09:32:31;;;;;;;13.30;4.40;;;21.20;54.60;;;;;;4988944;28;20606;-74
2022/05/14 09:35:12;;;;;;;9.60;3.35;;;21.40;54.20;;;;;;4980144;28;20673;-74
2022/05/14 09:37:40;;;;;;;16.33;4.13;;;21.40;53.90;;;;;;4984229;28;20035;-74
2022/05/14 09:40:14;;;;;;;17.20;4.75;;;21.50;54.00;;;;;;4990396;28;20116;-75
2022/05/14 09:42:47;;;;;;;15.43;4.55;;;21.50;53.60;;;;;;4982531;28;20039;-75
2022/05/14 09:45:29;;;;;;;14.63;3.83;;;21.40;53.20;;;;;;4983945;28;20030;-75
2022/05/14 09:47:56;;;;;;;15.20;4.65;;;21.40;53.00;;;;;;4987264;28;20054;-75
2022/05/14 09:50:30;;;;;;;14.70;4.20;;;21.20;52.90;;;;;;4982397;28;20026;-74
2022/05/14 09:53:03;;;;;;;23.52;5.55;;;21.20;52.80;;;;;;4971148;28;20034;-74
2022/05/14 09:55:48;;;;;;;12.35;4.00;;;21.10;52.50;;;;;;4986653;28;20042;-73
2022/05/14 09:58:25;;;;;;;16.20;4.45;;;21.10;52.40;;;;;;4982571;28;20030;-73
2022/05/14 10:01:09;;;;;;;12.25;3.70;;;21.30;52.40;;;;;;4978971;28;20026;-73
2022/05/14 10:03:41;;;;;;;12.65;4.45;;;21.60;52.00;;;;;;4987872;28;20402;-76
2022/05/14 10:06:29;;;;;;;10.95;3.67;;;21.80;51.90;;;;;;4980248;28;20101;-77
2022/05/14 10:08:55;;;;;;;13.90;3.92;;;21.90;51.30;;;;;;4982500;28;20309;-76
2022/05/14 10:11:35;;;;;;;11.48;3.40;;;21.90;51.40;;;;;;4978768;28;20194;-76
2022/05/14 10:14:42;;;;;;;12.65;4.45;;;22.10;51.40;;;;;;4972473;28;20034;-76
2022/05/14 10:17:26;;;;;;;8.60;3.33;;;22.20;50.70;;;;;;4992783;28;20129;-75
2022/05/14 10:20:07;;;;;;;11.13;3.70;;;22.40;50.80;;;;;;4998215;28;20042;-76
2022/05/14 10:29:10;;;;;;;13.40;3.60;;;22.40;50.30;;;;;;4998525;28;20037;-76
2022/05/14 10:31:54;;;;;;;11.68;3.70;;;22.20;50.10;;;;;;4986892;28;20033;-75
2022/05/14 10:34:36;;;;;;;10.05;3.60;;;22.10;50.10;;;;;;4990834;28;20038;-75
2022/05/14 10:37:11;;;;;;;16.88;4.40;;;22.10;50.10;;;;;;4981260;28;20050;-75
2022/05/14 10:39:48;;;;;;;15.60;4.80;;;22.20;50.10;;;;;;4987422;28;20034;-76
2022/05/14 10:42:47;;;;;;;14.52;4.05;;;22.30;49.80;;;;;;4975916;28;20025;-74
2022/05/14 10:45:41;;;;;;;14.05;4.00;;;22.40;49.80;;;;;;4946474;28;20058;-75
2022/05/14 10:48:37;;;;;;;10.05;4.03;;;22.40;49.20;;;;;;4978550;28;20112;-74
2022/05/14 10:51:06;;;;;;;16.73;3.67;;;22.50;49.30;;;;;;4976625;28;20030;-74
2022/05/14 10:53:33;;;;;;;15.52;3.83;;;22.60;49.40;;;;;;4989731;28;20037;-72
2022/05/14 10:56:33;;;;;;;9.50;3.00;;;22.80;49.50;;;;;;4985827;28;20026;-73
2022/05/14 10:59:05;;;;;;;12.60;3.58;;;23.00;49.30;;;;;;4979949;28;20454;-74
2022/05/14 11:01:52;;;;;;;15.32;4.22;;;23.10;49.10;;;;;;4978732;28;20379;-74
2022/05/14 11:04:48;;;;;;;12.60;4.05;;;23.10;49.00;;;;;;4977642;28;20039;-73
2022/05/14 11:07:39;;;;;;;12.80;3.60;;;23.00;48.50;;;;;;4962738;28;20026;-73
2022/05/14 11:10:32;;;;;;;10.65;3.63;;;22.90;48.60;;;;;;4985819;28;20092;-74
2022/05/14 11:13:29;;;;;;;11.25;3.47;;;22.80;48.60;;;;;;4972191;28;20053;-74
2022/05/14 11:16:02;;;;;;;11.48;3.75;;;22.90;48.90;;;;;;4946294;28;20071;-75
2022/05/14 11:18:28;;;;;;;;;;;23.20;48.90;;;;;;4981377;28;20030;-74
2022/05/14 11:21:00;;;;;;;10.23;3.75;;;23.50;48.90;;;;;;4983165;28;20365;-75
2022/05/14 11:23:26;;;;;;;11.88;3.83;;;23.70;48.80;;;;;;4980892;28;20137;-75
2022/05/14 11:26:12;;;;;;;9.73;3.45;;;23.90;48.60;;;;;;4981647;28;20045;-75
2022/05/14 11:28:39;;;;;;;12.85;3.85;;;23.90;47.70;;;;;;4975953;28;20328;-74
2022/05/14 11:31:21;;;;;;;10.80;3.80;;;23.90;48.00;;;;;;4978108;28;20041;-74
2022/05/14 11:33:49;;;;;;;10.85;4.70;;;24.00;47.90;;;;;;4987349;28;20114;-77
2022/05/14 11:36:20;;;;;;;14.15;3.63;;;24.30;48.30;;;;;;4989861;28;20195;-74
2022/05/14 11:39:03;;;;;;;11.57;4.22;;;24.70;48.60;;;;;;5006142;28;20038;-83
2022/05/14 11:41:35;;;;;;;10.85;2.97;;;25.00;48.30;;;;;;4988959;28;20436;-87
2022/05/14 11:44:06;;;;;;;12.73;3.78;;;25.30;47.90;;;;;;4941412;28;20053;-87
2022/05/14 11:46:49;;;;;;;10.00;3.80;;;25.40;47.50;;;;;;4996727;28;20089;-87
2022/05/14 11:49:40;;;;;;;10.93;3.97;;;25.50;47.00;;;;;;4984447;28;20053;-86
2022/05/14 11:52:11;;;;;;;8.32;3.47;;;25.50;46.90;;;;;;4988457;28;20037;-86
2022/05/14 11:54:42;;;;;;;11.35;3.50;;;25.60;47.00;;;;;;4987362;28;20034;-77
2022/05/14 11:57:14;;;;;;;15.85;3.67;;;25.50;46.80;;;;;;4981409;28;20481;-80
2022/05/14 11:59:40;;;;;;;18.60;4.80;;;25.50;46.70;;;;;;4994771;28;20183;-74
2022/05/14 12:02:15;;;;;;;9.90;3.72;;;25.40;46.60;;;;;;4984019;28;20594;-74
2022/05/14 12:04:44;;;;;;;10.18;2.95;;;25.50;46.50;;;;;;4986685;28;20046;-73
2022/05/14 12:07:37;;;;;;;11.80;3.88;;;25.60;46.40;;;;;;4967823;28;20030;-73
2022/05/14 12:10:14;;;;;;;11.00;3.67;;;25.60;45.70;;;;;;4948768;28;20102;-73
2022/05/14 12:12:47;;;;;;;12.15;4.18;;;25.60;46.00;;;;;;4978868;28;20027;-74
2022/05/14 12:15:21;;;;;;;11.68;4.13;;;25.50;45.90;;;;;;4987236;28;20040;-74
2022/05/14 12:17:49;;;;;;;7.45;3.22;;;25.50;45.90;;;;;;4983507;28;20061;-74
2022/05/14 12:20:25;;;;;;;10.00;3.47;;;25.30;45.80;;;;;;4964291;28;20041;-73
2022/05/14 12:23:04;;;;;;;11.07;3.22;;;25.10;45.80;;;;;;4978386;28;20031;-73
2022/05/14 12:25:40;;;;;;;12.73;4.22;;;25.00;46.10;;;;;;4985462;28;20034;-73
2022/05/14 12:28:26;;;;;;;8.73;3.47;;;24.80;46.00;;;;;;4974821;28;20496;-74
2022/05/14 12:34:07;;;;;;;15.00;3.45;;;24.70;45.90;;;;;;4983042;28;20027;-74
2022/05/14 12:36:35;;;;;;;7.93;3.30;;;24.70;46.00;;;;;;4984092;28;20041;-73
2022/05/14 12:39:03;;;;;;;9.82;3.92;;;24.80;46.10;;;;;;4987334;28;20037;-75
2022/05/14 12:41:32;;;;;;;9.75;3.30;;;24.80;46.00;;;;;;4982810;28;20125;-74
2022/05/14 12:44:15;;;;;;;10.10;3.50;;;24.90;46.10;;;;;;4980915;28;20038;-74
2022/05/14 12:46:48;;;;;;;6.93;3.22;;;25.10;46.10;;;;;;4977820;28;20061;-74
2022/05/14 12:49:24;;;;;;;12.02;3.08;;;25.50;45.80;;;;;;4967702;28;20023;-74
2022/05/14 12:51:53;;;;;;;13.73;3.80;;;25.80;45.20;;;;;;4979174;28;20031;-77
2022/05/14 12:54:29;;;;;;;9.10;3.80;;;26.00;44.90;;;;;;4977389;28;20038;-75
2022/05/14 12:57:05;;;;;;;11.27;3.63;;;26.10;44.60;;;;;;4984845;28;20561;-74
2022/05/14 12:59:31;;;;;;;9.70;3.60;;;26.20;44.40;;;;;;4983426;28;20023;-75
2022/05/14 13:02:06;;;;;;;8.18;2.90;;;26.50;44.40;;;;;;4987336;28;20072;-74
2022/05/14 13:04:48;;;;;;;9.48;3.25;;;26.70;43.80;;;;;;4988184;28;20041;-74
2022/05/14 13:07:15;;;;;;;13.07;4.03;;;26.80;43.40;;;;;;4977907;28;20034;-74
2022/05/14 13:09:41;;;;;;;10.57;3.83;;;27.00;43.50;;;;;;4994764;28;20031;-75
2022/05/14 13:12:15;;;;;;;9.40;3.78;;;27.00;43.30;;;;;;4962629;28;20026;-75
2022/05/14 13:14:50;;;;;;;11.85;3.97;;;27.00;43.10;;;;;;4987174;28;20034;-74
2022/05/14 13:17:16;;;;;;;11.13;3.33;;;26.90;42.80;;;;;;4984019;28;20504;-75
2022/05/14 13:19:46;;;;;;;10.10;3.88;;;26.70;43.10;;;;;;4992385;28;20030;-74
2022/05/14 13:22:37;;;;;;;10.75;3.90;;;26.50;43.40;;;;;;4987765;28;20057;-74